sensor_id;sensor_type;location;lat;lon;timestamp;P1;durP1;ratioP1;P2;durP2;ratioP2
36725;SDS011;44936;52.086;5.150;2023-01-23T00:00:31;8.43;;;2.85;;
36725;SDS011;44936;52.086;5.150;2023-01-23T00:02:57;8.52;;;3.13;;
36725;SDS011;44936;52.086;5.150;2023-01-23T00:05:22;6.72;;;2.72;;
36725;SDS011;44936;52.086;5.150;2023-01-23T00:07:48;8.57;;;2.80;;
36725;SDS011;44936;52.086;5.150;2023-01-23T00:10:13;10.27;;;3.00;;
36725;SDS011;44936;52.086;5.150;2023-01-23T00:12:43;7.68;;;2.63;;
36725;SDS011;44936;52.086;5.150;2023-01-23T00:15:10;10.70;;;3.20;;
36725;SDS011;44936;52.086;5.150;2023-01-23T00:17:38;10.30;;;2.80;;
36725;SDS011;44936;52.086;5.150;2023-01-23T00:20:07;10.90;;;2.90;;
36725;SDS011;44936;52.086;5.150;2023-01-23T00:22:34;9.73;;;2.67;;
36725;SDS011;44936;52.086;5.150;2023-01-23T00:24:59;8.25;;;2.58;;
36725;SDS011;44936;52.086;5.150;2023-01-23T00:27:24;4.32;;;2.30;;
36725;SDS011;44936;52.086;5.150;2023-01-23T00:29:53;6.65;;;2.65;;
36725;SDS011;44936;52.086;5.150;2023-01-23T00:32:18;6.95;;;2.40;;
36725;SDS011;44936;52.086;5.150;2023-01-23T00:34:45;5.18;;;2.30;;
36725;SDS011;44936;52.086;5.150;2023-01-23T00:37:11;6.78;;;2.58;;
36725;SDS011;44936;52.086;5.150;2023-01-23T00:39:37;12.07;;;3.33;;
36725;SDS011;44936;52.086;5.150;2023-01-23T00:42:02;9.45;;;2.28;;
36725;SDS011;44936;52.086;5.150;2023-01-23T00:44:28;6.38;;;2.53;;
36725;SDS011;44936;52.086;5.150;2023-01-23T00:46:54;9.45;;;3.30;;
36725;SDS011;44936;52.086;5.150;2023-01-23T00:49:20;6.82;;;3.08;;
36725;SDS011;44936;52.086;5.150;2023-01-23T00:51:46;6.93;;;2.80;;
36725;SDS011;44936;52.086;5.150;2023-01-23T00:54:11;6.75;;;2.80;;
36725;SDS011;44936;52.086;5.150;2023-01-23T00:56:37;7.05;;;2.88;;
36725;SDS011;44936;52.086;5.150;2023-01-23T00:59:02;11.07;;;3.00;;
36725;SDS011;44936;52.086;5.150;2023-01-23T01:01:28;7.05;;;2.80;;
36725;SDS011;44936;52.086;5.150;2023-01-23T01:03:55;8.15;;;2.55;;
36725;SDS011;44936;52.086;5.150;2023-01-23T01:06:21;6.20;;;2.55;;
36725;SDS011;44936;52.086;5.150;2023-01-23T01:08:46;8.25;;;3.00;;
36725;SDS011;44936;52.086;5.150;2023-01-23T01:11:12;8.23;;;2.42;;
36725;SDS011;44936;52.086;5.150;2023-01-23T01:13:37;8.18;;;2.63;;
36725;SDS011;44936;52.086;5.150;2023-01-23T01:16:03;10.75;;;2.70;;
36725;SDS011;44936;52.086;5.150;2023-01-23T01:18:29;8.55;;;2.30;;
36725;SDS011;44936;52.086;5.150;2023-01-23T01:20:54;9.80;;;2.70;;
36725;SDS011;44936;52.086;5.150;2023-01-23T01:23:23;6.82;;;2.67;;
36725;SDS011;44936;52.086;5.150;2023-01-23T01:25:49;6.95;;;2.80;;
36725;SDS011;44936;52.086;5.150;2023-01-23T01:28:14;8.70;;;2.78;;
36725;SDS011;44936;52.086;5.150;2023-01-23T01:30:39;7.63;;;2.53;;
36725;SDS011;44936;52.086;5.150;2023-01-23T01:33:05;11.15;;;2.72;;
36725;SDS011;44936;52.086;5.150;2023-01-23T01:35:33;7.55;;;2.55;;
36725;SDS011;44936;52.086;5.150;2023-01-23T01:37:58;9.18;;;3.13;;
36725;SDS011;44936;52.086;5.150;2023-01-23T01:40:28;6.55;;;2.58;;
36725;SDS011;44936;52.086;5.150;2023-01-23T01:42:58;14.23;;;2.60;;
36725;SDS011;44936;52.086;5.150;2023-01-23T01:48:23;9.85;;;2.72;;
36725;SDS011;44936;52.086;5.150;2023-01-23T01:50:53;10.65;;;2.85;;
36725;SDS011;44936;52.086;5.150;2023-01-23T01:53:20;7.93;;;2.20;;
36725;SDS011;44936;52.086;5.150;2023-01-23T01:55:48;9.63;;;2.83;;
36725;SDS011;44936;52.086;5.150;2023-01-23T01:58:14;6.15;;;2.53;;
36725;SDS011;44936;52.086;5.150;2023-01-23T02:00:39;9.05;;;3.00;;
36725;SDS011;44936;52.086;5.150;2023-01-23T02:03:05;13.63;;;3.50;;
36725;SDS011;44936;52.086;5.150;2023-01-23T02:05:49;6.57;;;2.60;;
36725;SDS011;44936;52.086;5.150;2023-01-23T02:10:47;9.95;;;3.17;;
36725;SDS011;44936;52.086;5.150;2023-01-23T02:13:29;8.90;;;2.45;;
36725;SDS011;44936;52.086;5.150;2023-01-23T02:16:01;8.77;;;2.90;;
36725;SDS011;44936;52.086;5.150;2023-01-23T02:18:31;6.53;;;2.35;;
36725;SDS011;44936;52.086;5.150;2023-01-23T02:21:00;7.00;;;2.70;;
36725;SDS011;44936;52.086;5.150;2023-01-23T02:29:00;4.70;;;2.22;;
36725;SDS011;44936;52.086;5.150;2023-01-23T02:31:26;7.60;;;2.80;;
36725;SDS011;44936;52.086;5.150;2023-01-23T02:33:52;6.18;;;2.35;;
36725;SDS011;44936;52.086;5.150;2023-01-23T02:36:23;9.45;;;3.28;;
36725;SDS011;44936;52.086;5.150;2023-01-23T02:39:06;7.47;;;3.00;;
36725;SDS011;44936;52.086;5.150;2023-01-23T02:41:39;9.48;;;3.60;;
36725;SDS011;44936;52.086;5.150;2023-01-23T02:44:22;6.70;;;2.60;;
36725;SDS011;44936;52.086;5.150;2023-01-23T02:46:53;9.55;;;2.97;;
36725;SDS011;44936;52.086;5.150;2023-01-23T02:49:19;6.45;;;2.42;;
36725;SDS011;44936;52.086;5.150;2023-01-23T02:51:46;9.80;;;2.85;;
36725;SDS011;44936;52.086;5.150;2023-01-23T02:54:12;9.90;;;2.38;;
36725;SDS011;44936;52.086;5.150;2023-01-23T02:56:37;6.25;;;2.55;;
36725;SDS011;44936;52.086;5.150;2023-01-23T02:59:06;8.82;;;2.67;;
36725;SDS011;44936;52.086;5.150;2023-01-23T03:01:49;11.05;;;3.42;;
36725;SDS011;44936;52.086;5.150;2023-01-23T03:04:15;7.72;;;2.78;;
36725;SDS011;44936;52.086;5.150;2023-01-23T03:06:41;9.65;;;2.88;;
36725;SDS011;44936;52.086;5.150;2023-01-23T03:09:07;14.57;;;3.38;;
36725;SDS011;44936;52.086;5.150;2023-01-23T03:11:36;7.68;;;2.80;;
36725;SDS011;44936;52.086;5.150;2023-01-23T03:14:04;11.75;;;2.97;;
36725;SDS011;44936;52.086;5.150;2023-01-23T03:16:31;7.28;;;3.35;;
36725;SDS011;44936;52.086;5.150;2023-01-23T03:18:56;11.23;;;3.38;;
36725;SDS011;44936;52.086;5.150;2023-01-23T03:21:23;10.00;;;2.97;;
36725;SDS011;44936;52.086;5.150;2023-01-23T03:23:48;9.40;;;3.30;;
36725;SDS011;44936;52.086;5.150;2023-01-23T03:26:14;9.00;;;2.67;;
36725;SDS011;44936;52.086;5.150;2023-01-23T03:28:41;8.45;;;2.75;;
36725;SDS011;44936;52.086;5.150;2023-01-23T03:31:25;10.32;;;2.78;;
36725;SDS011;44936;52.086;5.150;2023-01-23T03:33:51;6.00;;;2.08;;
36725;SDS011;44936;52.086;5.150;2023-01-23T03:36:17;10.02;;;2.47;;
36725;SDS011;44936;52.086;5.150;2023-01-23T03:38:42;10.82;;;3.20;;
36725;SDS011;44936;52.086;5.150;2023-01-23T03:41:28;8.70;;;2.88;;
36725;SDS011;44936;52.086;5.150;2023-01-23T03:43:54;10.27;;;3.65;;
36725;SDS011;44936;52.086;5.150;2023-01-23T03:46:20;11.10;;;2.97;;
36725;SDS011;44936;52.086;5.150;2023-01-23T03:48:45;7.57;;;2.97;;
36725;SDS011;44936;52.086;5.150;2023-01-23T03:51:10;9.35;;;2.95;;
36725;SDS011;44936;52.086;5.150;2023-01-23T03:53:36;15.95;;;3.05;;
36725;SDS011;44936;52.086;5.150;2023-01-23T03:56:01;11.15;;;3.00;;
36725;SDS011;44936;52.086;5.150;2023-01-23T03:58:27;9.27;;;3.15;;
36725;SDS011;44936;52.086;5.150;2023-01-23T04:00:54;10.82;;;3.05;;
36725;SDS011;44936;52.086;5.150;2023-01-23T04:03:20;11.30;;;3.20;;
36725;SDS011;44936;52.086;5.150;2023-01-23T04:05:45;12.38;;;3.20;;
36725;SDS011;44936;52.086;5.150;2023-01-23T04:08:11;7.97;;;2.42;;
36725;SDS011;44936;52.086;5.150;2023-01-23T04:10:36;9.25;;;2.83;;
36725;SDS011;44936;52.086;5.150;2023-01-23T04:13:02;11.75;;;3.35;;
36725;SDS011;44936;52.086;5.150;2023-01-23T04:15:30;6.95;;;2.88;;
36725;SDS011;44936;52.086;5.150;2023-01-23T04:17:57;6.53;;;2.50;;
36725;SDS011;44936;52.086;5.150;2023-01-23T04:20:22;9.70;;;3.70;;
36725;SDS011;44936;52.086;5.150;2023-01-23T04:22:50;7.82;;;2.95;;
36725;SDS011;44936;52.086;5.150;2023-01-23T04:25:16;8.30;;;3.05;;
36725;SDS011;44936;52.086;5.150;2023-01-23T04:27:41;12.05;;;2.85;;
36725;SDS011;44936;52.086;5.150;2023-01-23T04:30:06;8.20;;;2.85;;
36725;SDS011;44936;52.086;5.150;2023-01-23T04:32:33;10.18;;;3.67;;
36725;SDS011;44936;52.086;5.150;2023-01-23T04:34:58;10.27;;;2.92;;
36725;SDS011;44936;52.086;5.150;2023-01-23T04:37:23;9.57;;;2.95;;
36725;SDS011;44936;52.086;5.150;2023-01-23T04:39:49;10.45;;;3.30;;
36725;SDS011;44936;52.086;5.150;2023-01-23T04:42:17;7.57;;;2.67;;
36725;SDS011;44936;52.086;5.150;2023-01-23T04:44:51;10.82;;;2.67;;
36725;SDS011;44936;52.086;5.150;2023-01-23T04:47:16;8.30;;;3.03;;
36725;SDS011;44936;52.086;5.150;2023-01-23T04:49:42;9.32;;;3.55;;
36725;SDS011;44936;52.086;5.150;2023-01-23T04:52:07;8.65;;;2.78;;
36725;SDS011;44936;52.086;5.150;2023-01-23T04:54:32;10.00;;;3.25;;
36725;SDS011;44936;52.086;5.150;2023-01-23T04:56:58;9.18;;;3.00;;
36725;SDS011;44936;52.086;5.150;2023-01-23T04:59:23;9.50;;;3.40;;
36725;SDS011;44936;52.086;5.150;2023-01-23T05:01:49;9.98;;;3.10;;
36725;SDS011;44936;52.086;5.150;2023-01-23T05:04:14;10.13;;;3.05;;
36725;SDS011;44936;52.086;5.150;2023-01-23T05:06:39;11.38;;;3.15;;
36725;SDS011;44936;52.086;5.150;2023-01-23T05:09:05;7.07;;;2.65;;
36725;SDS011;44936;52.086;5.150;2023-01-23T05:11:31;10.25;;;3.28;;
36725;SDS011;44936;52.086;5.150;2023-01-23T05:13:56;10.35;;;2.85;;
36725;SDS011;44936;52.086;5.150;2023-01-23T05:16:21;9.18;;;3.03;;
36725;SDS011;44936;52.086;5.150;2023-01-23T05:18:47;10.48;;;3.22;;
36725;SDS011;44936;52.086;5.150;2023-01-23T05:21:12;8.65;;;2.78;;
36725;SDS011;44936;52.086;5.150;2023-01-23T05:23:38;11.38;;;4.05;;
36725;SDS011;44936;52.086;5.150;2023-01-23T05:26:03;12.13;;;3.78;;
36725;SDS011;44936;52.086;5.150;2023-01-23T05:28:29;11.77;;;3.50;;
36725;SDS011;44936;52.086;5.150;2023-01-23T05:30:54;9.90;;;2.75;;
36725;SDS011;44936;52.086;5.150;2023-01-23T05:33:20;12.38;;;3.45;;
36725;SDS011;44936;52.086;5.150;2023-01-23T05:35:45;11.32;;;3.10;;
36725;SDS011;44936;52.086;5.150;2023-01-23T05:38:11;9.65;;;3.63;;
36725;SDS011;44936;52.086;5.150;2023-01-23T05:40:37;12.68;;;3.40;;
36725;SDS011;44936;52.086;5.150;2023-01-23T05:43:02;10.93;;;3.20;;
36725;SDS011;44936;52.086;5.150;2023-01-23T05:45:28;9.23;;;3.03;;
36725;SDS011;44936;52.086;5.150;2023-01-23T05:47:53;10.85;;;3.55;;
36725;SDS011;44936;52.086;5.150;2023-01-23T05:50:20;11.02;;;3.15;;
36725;SDS011;44936;52.086;5.150;2023-01-23T05:52:47;8.82;;;3.03;;
36725;SDS011;44936;52.086;5.150;2023-01-23T05:55:13;8.77;;;3.05;;
36725;SDS011;44936;52.086;5.150;2023-01-23T05:57:38;10.02;;;3.20;;
36725;SDS011;44936;52.086;5.150;2023-01-23T06:00:04;11.20;;;3.20;;
36725;SDS011;44936;52.086;5.150;2023-01-23T06:02:31;9.02;;;3.20;;
36725;SDS011;44936;52.086;5.150;2023-01-23T06:04:58;10.43;;;3.67;;
36725;SDS011;44936;52.086;5.150;2023-01-23T06:07:23;6.97;;;2.83;;
36725;SDS011;44936;52.086;5.150;2023-01-23T06:09:49;9.07;;;3.20;;
36725;SDS011;44936;52.086;5.150;2023-01-23T06:12:14;8.38;;;3.00;;
36725;SDS011;44936;52.086;5.150;2023-01-23T06:14:39;13.68;;;3.75;;
36725;SDS011;44936;52.086;5.150;2023-01-23T06:17:05;14.48;;;3.38;;
36725;SDS011;44936;52.086;5.150;2023-01-23T06:19:31;9.20;;;3.20;;
36725;SDS011;44936;52.086;5.150;2023-01-23T06:21:57;10.73;;;3.22;;
36725;SDS011;44936;52.086;5.150;2023-01-23T06:24:22;11.60;;;4.15;;
36725;SDS011;44936;52.086;5.150;2023-01-23T06:26:48;12.75;;;3.85;;
36725;SDS011;44936;52.086;5.150;2023-01-23T06:29:13;15.45;;;3.88;;
36725;SDS011;44936;52.086;5.150;2023-01-23T06:31:38;9.90;;;4.00;;
36725;SDS011;44936;52.086;5.150;2023-01-23T06:34:04;14.18;;;3.60;;
36725;SDS011;44936;52.086;5.150;2023-01-23T06:36:30;8.20;;;3.17;;
36725;SDS011;44936;52.086;5.150;2023-01-23T06:38:56;11.65;;;3.72;;
36725;SDS011;44936;52.086;5.150;2023-01-23T06:41:21;14.07;;;3.53;;
36725;SDS011;44936;52.086;5.150;2023-01-23T06:43:48;11.10;;;3.25;;
36725;SDS011;44936;52.086;5.150;2023-01-23T06:46:13;10.98;;;3.70;;
36725;SDS011;44936;52.086;5.150;2023-01-23T06:48:39;17.50;;;4.18;;
36725;SDS011;44936;52.086;5.150;2023-01-23T06:51:04;17.52;;;4.00;;
36725;SDS011;44936;52.086;5.150;2023-01-23T06:53:30;8.27;;;2.80;;
36725;SDS011;44936;52.086;5.150;2023-01-23T06:55:59;11.70;;;3.70;;
36725;SDS011;44936;52.086;5.150;2023-01-23T06:58:26;11.25;;;3.90;;
36725;SDS011;44936;52.086;5.150;2023-01-23T07:00:53;10.00;;;3.25;;
36725;SDS011;44936;52.086;5.150;2023-01-23T07:03:18;11.80;;;3.40;;
36725;SDS011;44936;52.086;5.150;2023-01-23T07:05:43;11.73;;;3.35;;
36725;SDS011;44936;52.086;5.150;2023-01-23T07:08:09;9.10;;;3.30;;
36725;SDS011;44936;52.086;5.150;2023-01-23T07:10:35;11.55;;;3.63;;
36725;SDS011;44936;52.086;5.150;2023-01-23T07:13:03;10.80;;;3.80;;
36725;SDS011;44936;52.086;5.150;2023-01-23T07:15:28;13.57;;;3.85;;
36725;SDS011;44936;52.086;5.150;2023-01-23T07:17:54;12.07;;;3.72;;
36725;SDS011;44936;52.086;5.150;2023-01-23T07:20:19;12.82;;;3.90;;
36725;SDS011;44936;52.086;5.150;2023-01-23T07:22:45;12.63;;;3.60;;
36725;SDS011;44936;52.086;5.150;2023-01-23T07:25:10;11.80;;;3.28;;
36725;SDS011;44936;52.086;5.150;2023-01-23T07:27:36;9.50;;;2.85;;
36725;SDS011;44936;52.086;5.150;2023-01-23T07:30:01;11.27;;;3.67;;
36725;SDS011;44936;52.086;5.150;2023-01-23T07:32:28;14.57;;;4.13;;
36725;SDS011;44936;52.086;5.150;2023-01-23T07:34:53;10.38;;;3.72;;
36725;SDS011;44936;52.086;5.150;2023-01-23T07:37:19;10.30;;;3.72;;
36725;SDS011;44936;52.086;5.150;2023-01-23T07:39:44;9.88;;;3.13;;
36725;SDS011;44936;52.086;5.150;2023-01-23T07:42:10;9.82;;;3.00;;
36725;SDS011;44936;52.086;5.150;2023-01-23T07:44:35;12.43;;;3.88;;
36725;SDS011;44936;52.086;5.150;2023-01-23T07:47:01;8.93;;;3.20;;
36725;SDS011;44936;52.086;5.150;2023-01-23T07:49:26;14.85;;;4.20;;
36725;SDS011;44936;52.086;5.150;2023-01-23T07:51:52;12.00;;;3.60;;
36725;SDS011;44936;52.086;5.150;2023-01-23T07:54:17;10.98;;;3.42;;
36725;SDS011;44936;52.086;5.150;2023-01-23T07:56:42;9.07;;;3.40;;
36725;SDS011;44936;52.086;5.150;2023-01-23T07:59:08;12.13;;;3.38;;
36725;SDS011;44936;52.086;5.150;2023-01-23T08:01:35;8.55;;;3.50;;
36725;SDS011;44936;52.086;5.150;2023-01-23T08:04:01;12.80;;;4.03;;
36725;SDS011;44936;52.086;5.150;2023-01-23T08:06:26;13.75;;;3.97;;
36725;SDS011;44936;52.086;5.150;2023-01-23T08:08:51;11.60;;;4.00;;
36725;SDS011;44936;52.086;5.150;2023-01-23T08:11:18;13.27;;;3.55;;
36725;SDS011;44936;52.086;5.150;2023-01-23T08:13:47;16.48;;;4.10;;
36725;SDS011;44936;52.086;5.150;2023-01-23T08:16:13;9.93;;;3.58;;
36725;SDS011;44936;52.086;5.150;2023-01-23T08:18:38;13.55;;;4.05;;
36725;SDS011;44936;52.086;5.150;2023-01-23T08:21:08;12.20;;;4.25;;
36725;SDS011;44936;52.086;5.150;2023-01-23T08:23:33;16.98;;;4.20;;
36725;SDS011;44936;52.086;5.150;2023-01-23T08:26:01;13.23;;;3.90;;
36725;SDS011;44936;52.086;5.150;2023-01-23T08:28:27;13.75;;;3.63;;
36725;SDS011;44936;52.086;5.150;2023-01-23T08:30:53;11.60;;;3.42;;
36725;SDS011;44936;52.086;5.150;2023-01-23T08:33:19;12.32;;;3.90;;
36725;SDS011;44936;52.086;5.150;2023-01-23T08:35:49;10.55;;;3.75;;
36725;SDS011;44936;52.086;5.150;2023-01-23T08:38:16;9.63;;;3.00;;
36725;SDS011;44936;52.086;5.150;2023-01-23T08:40:43;14.23;;;4.72;;
36725;SDS011;44936;52.086;5.150;2023-01-23T08:43:09;13.75;;;4.50;;
36725;SDS011;44936;52.086;5.150;2023-01-23T08:45:36;13.93;;;4.32;;
36725;SDS011;44936;52.086;5.150;2023-01-23T08:48:01;12.77;;;4.43;;
36725;SDS011;44936;52.086;5.150;2023-01-23T08:50:27;15.90;;;4.63;;
36725;SDS011;44936;52.086;5.150;2023-01-23T08:52:53;11.23;;;3.80;;
36725;SDS011;44936;52.086;5.150;2023-01-23T08:55:18;10.70;;;4.07;;
36725;SDS011;44936;52.086;5.150;2023-01-23T08:57:44;10.65;;;3.47;;
36725;SDS011;44936;52.086;5.150;2023-01-23T09:00:09;12.55;;;4.03;;
36725;SDS011;44936;52.086;5.150;2023-01-23T09:02:35;10.20;;;3.75;;
36725;SDS011;44936;52.086;5.150;2023-01-23T09:05:01;12.60;;;3.35;;
36725;SDS011;44936;52.086;5.150;2023-01-23T09:07:26;12.55;;;4.40;;
36725;SDS011;44936;52.086;5.150;2023-01-23T09:09:51;14.32;;;4.30;;
36725;SDS011;44936;52.086;5.150;2023-01-23T09:12:18;11.00;;;3.80;;
36725;SDS011;44936;52.086;5.150;2023-01-23T09:14:44;11.40;;;3.60;;
36725;SDS011;44936;52.086;5.150;2023-01-23T09:17:09;10.68;;;4.05;;
36725;SDS011;44936;52.086;5.150;2023-01-23T09:19:35;13.18;;;3.72;;
36725;SDS011;44936;52.086;5.150;2023-01-23T09:22:01;15.57;;;4.55;;
36725;SDS011;44936;52.086;5.150;2023-01-23T09:24:28;14.57;;;3.80;;
36725;SDS011;44936;52.086;5.150;2023-01-23T09:26:54;11.88;;;4.05;;
36725;SDS011;44936;52.086;5.150;2023-01-23T09:29:19;14.25;;;4.10;;
36725;SDS011;44936;52.086;5.150;2023-01-23T09:31:45;13.48;;;4.43;;
36725;SDS011;44936;52.086;5.150;2023-01-23T09:34:10;13.43;;;4.10;;
36725;SDS011;44936;52.086;5.150;2023-01-23T09:36:35;16.08;;;4.07;;
36725;SDS011;44936;52.086;5.150;2023-01-23T09:39:02;15.27;;;5.13;;
36725;SDS011;44936;52.086;5.150;2023-01-23T09:41:27;13.93;;;4.07;;
36725;SDS011;44936;52.086;5.150;2023-01-23T09:46:55;14.52;;;4.30;;
36725;SDS011;44936;52.086;5.150;2023-01-23T09:49:27;17.38;;;4.15;;
36725;SDS011;44936;52.086;5.150;2023-01-23T09:52:11;13.98;;;3.85;;
36725;SDS011;44936;52.086;5.150;2023-01-23T09:54:44;14.65;;;4.72;;
36725;SDS011;44936;52.086;5.150;2023-01-23T09:57:14;14.80;;;4.07;;
36725;SDS011;44936;52.086;5.150;2023-01-23T09:59:50;17.38;;;4.25;;
36725;SDS011;44936;52.086;5.150;2023-01-23T10:02:20;16.73;;;5.00;;
36725;SDS011;44936;52.086;5.150;2023-01-23T10:04:50;14.57;;;4.88;;
36725;SDS011;44936;52.086;5.150;2023-01-23T10:13:09;15.32;;;4.55;;
36725;SDS011;44936;52.086;5.150;2023-01-23T10:18:22;14.60;;;4.78;;
36725;SDS011;44936;52.086;5.150;2023-01-23T10:23:40;14.32;;;4.15;;
36725;SDS011;44936;52.086;5.150;2023-01-23T10:26:29;12.40;;;4.10;;
36725;SDS011;44936;52.086;5.150;2023-01-23T10:28:59;14.48;;;4.57;;
36725;SDS011;44936;52.086;5.150;2023-01-23T10:31:29;13.43;;;4.45;;
36725;SDS011;44936;52.086;5.150;2023-01-23T10:36:35;16.95;;;4.55;;
36725;SDS011;44936;52.086;5.150;2023-01-23T10:39:14;16.02;;;4.90;;
36725;SDS011;44936;52.086;5.150;2023-01-23T10:41:44;18.25;;;5.60;;
36725;SDS011;44936;52.086;5.150;2023-01-23T10:44:15;17.17;;;4.53;;
36725;SDS011;44936;52.086;5.150;2023-01-23T10:46:46;13.40;;;4.05;;
36725;SDS011;44936;52.086;5.150;2023-01-23T10:52:28;15.65;;;4.63;;
36725;SDS011;44936;52.086;5.150;2023-01-23T10:54:59;19.27;;;4.80;;
36725;SDS011;44936;52.086;5.150;2023-01-23T10:57:25;16.15;;;4.80;;
36725;SDS011;44936;52.086;5.150;2023-01-23T11:00:16;17.10;;;5.28;;
36725;SDS011;44936;52.086;5.150;2023-01-23T11:02:44;16.63;;;4.97;;
36725;SDS011;44936;52.086;5.150;2023-01-23T11:10:50;14.68;;;4.75;;
36725;SDS011;44936;52.086;5.150;2023-01-23T11:13:28;17.83;;;5.18;;
36725;SDS011;44936;52.086;5.150;2023-01-23T11:15:54;17.40;;;4.97;;
36725;SDS011;44936;52.086;5.150;2023-01-23T11:18:31;11.63;;;4.07;;
36725;SDS011;44936;52.086;5.150;2023-01-23T11:20:59;13.50;;;4.40;;
36725;SDS011;44936;52.086;5.150;2023-01-23T11:23:25;15.77;;;4.60;;
36725;SDS011;44936;52.086;5.150;2023-01-23T11:25:55;13.20;;;3.58;;
36725;SDS011;44936;52.086;5.150;2023-01-23T11:28:22;14.88;;;4.72;;
36725;SDS011;44936;52.086;5.150;2023-01-23T11:31:07;15.55;;;4.57;;
36725;SDS011;44936;52.086;5.150;2023-01-23T11:33:44;17.27;;;4.50;;
36725;SDS011;44936;52.086;5.150;2023-01-23T11:39:09;14.30;;;4.22;;
36725;SDS011;44936;52.086;5.150;2023-01-23T11:41:41;11.90;;;3.95;;
36725;SDS011;44936;52.086;5.150;2023-01-23T11:44:12;15.75;;;4.25;;
36725;SDS011;44936;52.086;5.150;2023-01-23T11:57:19;12.88;;;3.67;;
36725;SDS011;44936;52.086;5.150;2023-01-23T12:16:42;11.55;;;3.63;;
36725;SDS011;44936;52.086;5.150;2023-01-23T12:30:19;11.60;;;3.60;;
36725;SDS011;44936;52.086;5.150;2023-01-23T12:33:26;12.15;;;3.83;;
36725;SDS011;44936;52.086;5.150;2023-01-23T12:36:06;14.10;;;4.35;;
36725;SDS011;44936;52.086;5.150;2023-01-23T12:38:40;13.32;;;3.70;;
36725;SDS011;44936;52.086;5.150;2023-01-23T12:43:58;13.15;;;4.28;;
36725;SDS011;44936;52.086;5.150;2023-01-23T12:46:42;11.75;;;3.45;;
36725;SDS011;44936;52.086;5.150;2023-01-23T12:52:27;16.85;;;4.22;;
36725;SDS011;44936;52.086;5.150;2023-01-23T12:57:47;12.95;;;3.63;;
36725;SDS011;44936;52.086;5.150;2023-01-23T13:05:42;12.50;;;3.65;;
36725;SDS011;44936;52.086;5.150;2023-01-23T13:08:24;16.92;;;4.45;;
36725;SDS011;44936;52.086;5.150;2023-01-23T13:16:46;13.52;;;3.58;;
36725;SDS011;44936;52.086;5.150;2023-01-23T13:19:21;10.73;;;3.47;;
36725;SDS011;44936;52.086;5.150;2023-01-23T13:22:25;12.15;;;3.88;;
36725;SDS011;44936;52.086;5.150;2023-01-23T13:24:58;14.55;;;3.80;;
36725;SDS011;44936;52.086;5.150;2023-01-23T13:27:53;16.60;;;4.70;;
36725;SDS011;44936;52.086;5.150;2023-01-23T13:32:47;14.27;;;3.75;;
36725;SDS011;44936;52.086;5.150;2023-01-23T13:52:20;14.05;;;3.90;;
36725;SDS011;44936;52.086;5.150;2023-01-23T13:57:58;11.27;;;3.42;;
36725;SDS011;44936;52.086;5.150;2023-01-23T14:00:23;14.55;;;4.30;;
36725;SDS011;44936;52.086;5.150;2023-01-23T14:02:52;12.77;;;3.55;;
36725;SDS011;44936;52.086;5.150;2023-01-23T14:05:40;11.07;;;3.92;;
36725;SDS011;44936;52.086;5.150;2023-01-23T14:08:11;14.98;;;4.32;;
36725;SDS011;44936;52.086;5.150;2023-01-23T14:10:43;10.38;;;3.90;;
36725;SDS011;44936;52.086;5.150;2023-01-23T14:13:15;9.40;;;3.50;;
36725;SDS011;44936;52.086;5.150;2023-01-23T14:15:47;10.48;;;3.35;;
36725;SDS011;44936;52.086;5.150;2023-01-23T14:18:42;13.52;;;3.60;;
36725;SDS011;44936;52.086;5.150;2023-01-23T14:21:29;10.30;;;3.42;;
36725;SDS011;44936;52.086;5.150;2023-01-23T14:24:00;15.40;;;4.03;;
36725;SDS011;44936;52.086;5.150;2023-01-23T14:26:28;9.88;;;3.58;;
36725;SDS011;44936;52.086;5.150;2023-01-23T14:28:59;15.63;;;5.30;;
36725;SDS011;44936;52.086;5.150;2023-01-23T14:31:27;13.52;;;3.55;;
36725;SDS011;44936;52.086;5.150;2023-01-23T14:34:11;15.13;;;4.45;;
36725;SDS011;44936;52.086;5.150;2023-01-23T14:36:41;14.98;;;3.30;;
36725;SDS011;44936;52.086;5.150;2023-01-23T14:39:13;14.90;;;4.50;;
36725;SDS011;44936;52.086;5.150;2023-01-23T14:41:42;11.18;;;4.18;;
36725;SDS011;44936;52.086;5.150;2023-01-23T14:44:10;10.80;;;2.85;;
36725;SDS011;44936;52.086;5.150;2023-01-23T14:46:43;13.90;;;4.10;;
36725;SDS011;44936;52.086;5.150;2023-01-23T14:49:12;15.48;;;3.72;;
36725;SDS011;44936;52.086;5.150;2023-01-23T14:51:57;13.30;;;3.47;;
36725;SDS011;44936;52.086;5.150;2023-01-23T14:54:27;11.93;;;3.50;;
36725;SDS011;44936;52.086;5.150;2023-01-23T14:56:54;12.85;;;4.38;;
36725;SDS011;44936;52.086;5.150;2023-01-23T14:59:31;11.25;;;3.80;;
36725;SDS011;44936;52.086;5.150;2023-01-23T15:01:58;12.35;;;3.95;;
36725;SDS011;44936;52.086;5.150;2023-01-23T15:04:26;11.00;;;3.80;;
36725;SDS011;44936;52.086;5.150;2023-01-23T15:06:59;9.10;;;3.10;;
36725;SDS011;44936;52.086;5.150;2023-01-23T15:09:30;11.43;;;4.13;;
36725;SDS011;44936;52.086;5.150;2023-01-23T15:12:04;9.63;;;3.15;;
36725;SDS011;44936;52.086;5.150;2023-01-23T15:14:36;9.65;;;3.08;;
36725;SDS011;44936;52.086;5.150;2023-01-23T15:17:11;9.40;;;3.42;;
36725;SDS011;44936;52.086;5.150;2023-01-23T15:19:39;9.93;;;3.00;;
36725;SDS011;44936;52.086;5.150;2023-01-23T15:22:06;9.52;;;3.65;;
36725;SDS011;44936;52.086;5.150;2023-01-23T15:24:40;11.43;;;3.38;;
36725;SDS011;44936;52.086;5.150;2023-01-23T15:27:21;9.32;;;2.72;;
36725;SDS011;44936;52.086;5.150;2023-01-23T15:29:49;9.50;;;3.05;;
36725;SDS011;44936;52.086;5.150;2023-01-23T15:32:16;7.68;;;2.67;;
36725;SDS011;44936;52.086;5.150;2023-01-23T15:34:52;9.95;;;3.08;;
36725;SDS011;44936;52.086;5.150;2023-01-23T15:37:21;7.40;;;3.08;;
36725;SDS011;44936;52.086;5.150;2023-01-23T15:39:54;9.60;;;2.92;;
36725;SDS011;44936;52.086;5.150;2023-01-23T15:42:31;9.85;;;2.90;;
36725;SDS011;44936;52.086;5.150;2023-01-23T15:44:58;9.50;;;3.00;;
36725;SDS011;44936;52.086;5.150;2023-01-23T15:47:29;9.57;;;3.20;;
36725;SDS011;44936;52.086;5.150;2023-01-23T15:49:56;11.02;;;3.40;;
36725;SDS011;44936;52.086;5.150;2023-01-23T15:52:44;8.90;;;2.60;;
36725;SDS011;44936;52.086;5.150;2023-01-23T15:55:12;13.95;;;3.35;;
36725;SDS011;44936;52.086;5.150;2023-01-23T15:57:38;9.48;;;3.05;;
36725;SDS011;44936;52.086;5.150;2023-01-23T16:02:40;15.15;;;4.80;;
36725;SDS011;44936;52.086;5.150;2023-01-23T16:05:05;8.82;;;3.42;;
36725;SDS011;44936;52.086;5.150;2023-01-23T16:07:32;11.43;;;3.42;;
36725;SDS011;44936;52.086;5.150;2023-01-23T16:10:01;8.93;;;2.83;;
36725;SDS011;44936;52.086;5.150;2023-01-23T16:12:44;8.65;;;2.60;;
36725;SDS011;44936;52.086;5.150;2023-01-23T16:15:16;10.65;;;3.75;;
36725;SDS011;44936;52.086;5.150;2023-01-23T16:17:42;8.52;;;3.22;;
36725;SDS011;44936;52.086;5.150;2023-01-23T16:20:18;8.07;;;3.55;;
36725;SDS011;44936;52.086;5.150;2023-01-23T16:22:46;9.07;;;3.20;;
36725;SDS011;44936;52.086;5.150;2023-01-23T16:25:35;9.35;;;3.30;;
36725;SDS011;44936;52.086;5.150;2023-01-23T16:28:04;9.25;;;3.22;;
36725;SDS011;44936;52.086;5.150;2023-01-23T16:30:30;9.70;;;3.22;;
36725;SDS011;44936;52.086;5.150;2023-01-23T16:32:55;10.32;;;2.78;;
36725;SDS011;44936;52.086;5.150;2023-01-23T16:35:21;9.90;;;3.05;;
36725;SDS011;44936;52.086;5.150;2023-01-23T16:37:51;6.57;;;2.70;;
36725;SDS011;44936;52.086;5.150;2023-01-23T16:40:19;10.63;;;3.60;;
36725;SDS011;44936;52.086;5.150;2023-01-23T16:42:47;10.15;;;3.33;;
36725;SDS011;44936;52.086;5.150;2023-01-23T16:45:14;11.57;;;2.97;;
36725;SDS011;44936;52.086;5.150;2023-01-23T16:47:42;11.05;;;3.58;;
36725;SDS011;44936;52.086;5.150;2023-01-23T16:50:10;8.70;;;3.15;;
36725;SDS011;44936;52.086;5.150;2023-01-23T16:52:39;9.20;;;3.13;;